Time;durP1;ratioP1;P1;durP2;ratioP2;P2;SDS_P1;SDS_P2;PMS_P1;PMS_P2;Temp;Humidity;BMP_temperature;BMP_pressure;BME280_temperature;BME280_humidity;BME280_pressure;Samples;Min_cycle;Max_cycle;Signal;HPM_P1;HPM_P2
2021/10/24 00:02:07;;;;;;;23.40;10.50;;;;;;;3.38;92.00;102224.19;115603;1192;74916;-77
2021/10/24 00:04:34;;;;;;;28.80;10.40;;;;;;;3.36;92.17;102226.23;115740;1192;72135;-78
2021/10/24 00:07:00;;;;;;;26.00;10.50;;;;;;;3.35;91.97;102228.06;115248;1192;59335;-78
2021/10/24 00:09:27;;;;;;;24.00;9.50;;;;;;;3.34;92.39;102225.67;115700;1192;61941;-78
2021/10/24 00:11:58;;;;;;;25.10;10.70;;;;;;;3.33;92.42;102221.67;115783;1191;62019;-78
2021/10/24 00:14:24;;;;;;;22.60;9.60;;;;;;;3.32;92.35;102226.98;115767;1192;59054;-78
2021/10/24 00:16:51;;;;;;;20.50;10.20;;;;;;;3.31;92.57;102222.52;115743;1192;58934;-77
2021/10/24 00:19:17;;;;;;;22.20;10.10;;;;;;;3.32;92.85;102224.88;115786;1192;71267;-79
2021/10/24 00:21:44;;;;;;;22.10;11.10;;;;;;;3.34;93.01;102222.66;115751;1192;61729;-78
2021/10/24 00:24:11;;;;;;;22.70;10.00;;;;;;;3.34;92.87;102223.16;115795;1192;60247;-79
2021/10/24 00:26:37;;;;;;;27.90;11.90;;;;;;;3.34;92.77;102219.35;115426;1192;75777;-77
2021/10/24 00:29:04;;;;;;;20.50;8.90;;;;;;;3.34;92.90;102216.92;115714;1192;58945;-78
2021/10/24 00:31:31;;;;;;;21.80;10.70;;;;;;;3.34;92.62;102217.09;115752;1191;71560;-78
2021/10/24 00:33:57;;;;;;;27.00;10.10;;;;;;;3.32;92.42;102216.70;115813;1191;61930;-78
2021/10/24 00:36:25;;;;;;;21.70;10.40;;;;;;;3.30;92.65;102217.98;115695;1192;59929;-78
2021/10/24 00:38:52;;;;;;;18.00;8.60;;;;;;;3.32;92.87;102216.33;115785;1191;75675;-78
2021/10/24 00:41:18;;;;;;;20.00;9.00;;;;;;;3.32;92.89;102215.45;115793;1192;71315;-78
2021/10/24 00:43:45;;;;;;;15.00;8.70;;;;;;;3.32;92.79;102210.20;115599;1191;58947;-77
2021/10/24 00:46:12;;;;;;;20.10;9.60;;;;;;;3.31;92.75;102205.17;115600;1176;61930;-78
2021/10/24 00:48:57;;;;;;;29.40;10.50;;;;;;;3.29;92.75;102204.06;115793;1192;60108;-78
2021/10/24 00:51:24;;;;;;;22.10;8.10;;;;;;;3.27;92.53;102206.63;115750;1191;75133;-78
2021/10/24 00:53:50;;;;;;;34.90;10.50;;;;;;;3.25;92.50;102204.44;115751;1191;72043;-77
2021/10/24 00:56:17;;;;;;;20.20;9.00;;;;;;;3.24;92.82;102203.46;115705;1191;71746;-77
2021/10/24 00:58:44;;;;;;;21.30;9.90;;;;;;;3.23;92.75;102208.58;115803;1191;63441;-77
2021/10/24 01:01:11;;;;;;;19.80;9.50;;;;;;;3.23;92.79;102211.20;115819;1192;61645;-77
2021/10/24 01:03:38;;;;;;;15.70;8.70;;;;;;;3.24;92.94;102207.52;115401;1191;74854;-77
2021/10/24 01:06:05;;;;;;;18.60;8.40;;;;;;;3.23;92.85;102202.33;115755;1192;72382;-78
2021/10/24 01:08:36;;;;;;;21.30;7.90;;;;;;;3.21;92.71;102202.25;115771;1177;72663;-78
2021/10/24 01:11:03;;;;;;;16.40;8.60;;;;;;;3.18;92.28;102202.04;115786;1192;61404;-78
2021/10/24 01:13:32;;;;;;;16.30;8.70;;;;;;;3.14;92.42;102195.14;115618;1193;61510;-78
2021/10/24 01:16:12;;;;;;;19.00;9.20;;;;;;;3.13;92.53;102195.19;115801;1191;74235;-78
2021/10/24 01:18:39;;;;;;;24.70;10.40;;;;;;;3.12;92.24;102197.05;115728;1192;72516;-77
2021/10/24 01:21:07;;;;;;;16.80;7.80;;;;;;;3.06;91.92;102199.45;115454;1192;72539;-78
2021/10/24 01:23:34;;;;;;;18.70;10.90;;;;;;;3.00;91.87;102196.48;115590;1191;61670;-79
2021/10/24 01:26:02;;;;;;;18.80;9.10;;;;;;;2.95;92.02;102196.43;115778;1192;60003;-78
2021/10/24 01:28:29;;;;;;;16.50;8.20;;;;;;;2.90;92.31;102194.96;115771;1191;74737;-78
2021/10/24 01:30:56;;;;;;;25.90;8.90;;;;;;;2.86;92.16;102191.14;115773;1191;72188;-78
2021/10/24 01:33:23;;;;;;;30.60;8.40;;;;;;;2.85;92.80;102192.83;115787;1191;72613;-78
2021/10/24 01:35:56;;;;;;;21.60;8.90;;;;;;;2.82;92.45;102195.41;115775;1192;61774;-78
2021/10/24 01:38:26;;;;;;;19.60;8.50;;;;;;;2.77;92.46;102190.27;115772;1192;61581;-78
2021/10/24 01:40:56;;;;;;;21.30;9.60;;;;;;;2.76;92.89;102185.13;115288;1192;75600;-79
2021/10/24 01:43:24;;;;;;;23.40;10.10;;;;;;;2.75;93.08;102190.41;115786;1192;72220;-79
2021/10/24 01:45:51;;;;;;;17.60;8.60;;;;;;;2.74;93.26;102185.23;115802;1192;73806;-79
2021/10/24 01:48:19;;;;;;;19.40;8.80;;;;;;;2.73;93.21;102186.30;115793;1192;61854;-79
2021/10/24 01:50:48;;;;;;;22.50;9.40;;;;;;;2.71;92.97;102184.87;115829;1192;59440;-79
2021/10/24 01:53:31;;;;;;;18.40;9.00;;;;;;;2.69;93.05;102180.10;115761;1192;74658;-78
2021/10/24 01:55:59;;;;;;;17.50;9.70;;;;;;;2.66;93.05;102176.93;115709;1192;70057;-78
2021/10/24 01:58:26;;;;;;;16.50;8.20;;;;;;;2.64;93.34;102175.50;115768;1191;74327;-76
2021/10/24 02:00:54;;;;;;;23.00;9.40;;;;;;;2.62;93.34;102172.48;115124;1192;61907;-78
2021/10/24 02:03:21;;;;;;;19.40;8.10;;;;;;;2.58;92.98;102172.65;115750;1191;60670;-77
2021/10/24 02:05:48;;;;;;;18.10;9.40;;;;;;;2.55;93.59;102174.39;115738;1192;75726;-77
2021/10/24 02:08:15;;;;;;;19.30;8.50;;;;;;;2.55;93.83;102167.98;115777;1190;72556;-77
2021/10/24 02:10:42;;;;;;;18.60;10.00;;;;;;;2.53;93.90;102166.16;115782;1191;72391;-78
2021/10/24 02:13:10;;;;;;;21.30;8.40;;;;;;;2.52;93.69;102166.21;115769;1191;61863;-78
2021/10/24 02:15:38;;;;;;;26.30;9.40;;;;;;;2.53;94.00;102165.11;115795;1191;61641;-79
2021/10/24 02:18:06;;;;;;;18.40;9.20;;;;;;;2.50;94.10;102168.94;115450;1191;75976;-79
2021/10/24 02:20:36;;;;;;;29.70;11.20;;;;;;;2.49;93.98;102161.50;115754;1191;71001;-77
2021/10/24 02:23:05;;;;;;;25.40;9.90;;;;;;;2.49;94.30;102167.08;115769;1191;73264;-77
2021/10/24 02:25:33;;;;;;;24.60;10.50;;;;;;;2.48;94.24;102168.90;115726;1192;62896;-77
2021/10/24 02:28:01;;;;;;;20.00;9.20;;;;;;;2.49;94.58;102167.44;115799;1191;60659;-77
2021/10/24 02:30:27;;;;;;;19.70;9.70;;;;;;;2.49;94.82;102161.16;115798;1191;74688;-77
2021/10/24 02:32:54;;;;;;;18.40;10.10;;;;;;;2.50;94.64;102163.02;115731;1192;71331;-77
2021/10/24 02:35:24;;;;;;;28.00;11.60;;;;;;;2.51;94.85;102163.27;115367;1184;59019;-79
2021/10/24 02:37:51;;;;;;;23.30;10.00;;;;;;;2.54;94.99;102161.76;115671;1191;61291;-78
2021/10/24 02:40:18;;;;;;;21.00;10.70;;;;;;;2.52;94.79;102164.46;115734;1192;61070;-78
2021/10/24 02:42:44;;;;;;;23.60;11.20;;;;;;;2.49;94.41;102166.73;115700;1192;75574;-77
2021/10/24 02:45:11;;;;;;;21.50;10.20;;;;;;;2.46;94.25;102163.03;115780;1191;71547;-78
2021/10/24 02:47:39;;;;;;;26.00;11.60;;;;;;;2.45;94.88;102162.41;115811;1191;72714;-78
2021/10/24 02:50:07;;;;;;;31.50;10.90;;;;;;;2.45;94.67;102160.31;115764;1191;62036;-78
2021/10/24 02:52:33;;;;;;;21.70;11.00;;;;;;;2.44;94.57;102158.27;115835;1191;60917;-77
2021/10/24 02:55:00;;;;;;;25.30;10.70;;;;;;;2.43;94.64;102157.45;114989;1191;75958;-78
2021/10/24 02:57:28;;;;;;;26.10;11.10;;;;;;;2.42;94.74;102155.25;115723;1191;72052;-78
2021/10/24 02:59:55;;;;;;;25.70;11.10;;;;;;;2.40;94.73;102153.23;115775;1191;73602;-79
2021/10/24 03:02:22;;;;;;;22.00;10.30;;;;;;;2.39;94.80;102151.41;115498;1193;61547;-78
2021/10/24 03:04:48;;;;;;;29.70;12.70;;;;;;;2.37;94.49;102151.33;115760;1191;60304;-78
2021/10/24 03:07:15;;;;;;;29.70;11.00;;;;;;;2.37;95.08;102150.78;115740;1192;75815;-78
2021/10/24 03:09:43;;;;;;;24.40;11.50;;;;;;;2.38;95.24;102151.98;115812;1192;60825;-78
2021/10/24 03:12:09;;;;;;;24.80;10.30;;;;;;;2.38;95.11;102153.17;115728;1192;72687;-78
2021/10/24 03:14:36;;;;;;;29.20;11.70;;;;;;;2.39;95.18;102150.72;115436;1192;60976;-78
2021/10/24 03:17:02;;;;;;;27.60;11.40;;;;;;;2.39;95.18;102150.52;115548;1192;59111;-78
2021/10/24 03:19:29;;;;;;;26.40;10.90;;;;;;;2.39;95.43;102151.06;115823;1192;75569;-78
2021/10/24 03:21:55;;;;;;;25.60;10.70;;;;;;;2.40;95.20;102152.55;115455;1193;72077;-78
2021/10/24 03:24:22;;;;;;;28.60;11.20;;;;;;;2.40;95.43;102153.05;115764;1192;72700;-78
2021/10/24 03:26:49;;;;;;;22.50;11.00;;;;;;;2.41;95.44;102150.05;115772;1192;61849;-78
2021/10/24 03:29:15;;;;;;;21.50;10.10;;;;;;;2.43;95.34;102149.79;115796;1191;59973;-78
2021/10/24 03:31:42;;;;;;;24.30;11.10;;;;;;;2.43;95.18;102150.47;115775;1192;74546;-78
2021/10/24 03:34:09;;;;;;;29.20;12.30;;;;;;;2.42;95.35;102149.98;115479;1191;71020;-78
2021/10/24 03:36:35;;;;;;;22.00;11.00;;;;;;;2.41;95.12;102149.14;115746;1193;59056;-78
2021/10/24 03:39:03;;;;;;;19.20;9.90;;;;;;;2.40;94.93;102151.33;115837;1192;62939;-78
2021/10/24 03:41:29;;;;;;;27.60;11.90;;;;;;;2.40;95.41;102150.80;115881;1192;61201;-78
2021/10/24 03:43:55;;;;;;;20.30;10.00;;;;;;;2.41;95.08;102146.72;115501;1193;75582;-78
2021/10/24 03:46:22;;;;;;;22.40;10.30;;;;;;;2.39;94.91;102145.62;115886;1192;58897;-78
2021/10/24 03:48:49;;;;;;;30.00;11.70;;;;;;;2.38;94.91;102146.58;115873;1193;59033;-77
2021/10/24 03:51:15;;;;;;;24.30;11.60;;;;;;;2.38;94.97;102144.83;115727;1192;58867;-77
2021/10/24 03:53:42;;;;;;;38.80;12.30;;;;;;;2.38;95.03;102140.62;115540;1192;59121;-78
2021/10/24 03:56:08;;;;;;;25.10;11.30;;;;;;;2.36;94.82;102134.45;115718;1193;61649;-77
2021/10/24 03:58:35;;;;;;;27.60;12.50;;;;;;;2.36;94.89;102139.00;115862;1184;59002;-77
2021/10/24 04:01:01;;;;;;;32.30;13.10;;;;;;;2.34;95.06;102137.85;115889;1192;58817;-77
2021/10/24 04:03:28;;;;;;;25.70;12.50;;;;;;;2.35;94.84;102141.81;115825;1192;63090;-77
2021/10/24 04:05:54;;;;;;;26.90;12.90;;;;;;;2.35;94.77;102137.99;115878;1191;58945;-77
2021/10/24 04:08:21;;;;;;;26.30;11.90;;;;;;;2.34;94.89;102132.46;115884;1192;74512;-78
2021/10/24 04:10:47;;;;;;;27.90;12.30;;;;;;;2.32;94.61;102136.92;115582;1192;59130;-77
2021/10/24 04:13:14;;;;;;;29.90;12.70;;;;;;;2.30;94.66;102136.50;115764;1192;59090;-78
2021/10/24 04:15:41;;;;;;;26.20;11.90;;;;;;;2.29;94.82;102135.68;115855;1184;59204;-78
2021/10/24 04:18:08;;;;;;;24.90;11.30;;;;;;;2.29;94.69;102137.11;115892;1191;61241;-78
2021/10/24 04:20:35;;;;;;;26.60;11.90;;;;;;;2.28;94.92;102136.78;115531;1192;75627;-78
2021/10/24 04:23:02;;;;;;;24.20;12.10;;;;;;;2.27;94.69;102135.83;115873;1191;72099;-77
2021/10/24 04:25:29;;;;;;;24.60;12.30;;;;;;;2.27;94.98;102131.82;115718;1191;72611;-77
2021/10/24 04:27:55;;;;;;;22.40;11.30;;;;;;;2.29;94.96;102136.27;115702;1191;62611;-78
2021/10/24 04:30:22;;;;;;;28.20;9.70;;;;;;;2.27;95.07;102131.45;115816;1192;62069;-78
2021/10/24 04:32:49;;;;;;;24.60;12.10;;;;;;;2.26;95.01;102127.14;115883;1191;75607;-78
2021/10/24 04:35:16;;;;;;;28.10;11.40;;;;;;;2.24;95.17;102124.98;115772;1193;72494;-78
2021/10/24 04:37:44;;;;;;;30.40;12.30;;;;;;;2.24;94.80;102128.14;115893;1191;72843;-77
2021/10/24 04:40:11;;;;;;;24.90;10.50;;;;;;;2.21;94.82;102126.88;115807;1192;62102;-78
2021/10/24 04:42:38;;;;;;;24.90;12.80;;;;;;;2.20;94.98;102124.50;115829;1192;59969;-78
2021/10/24 04:45:06;;;;;;;19.60;11.10;;;;;;;2.18;95.24;102126.20;115629;1193;74605;-77
2021/10/24 04:47:33;;;;;;;28.90;11.40;;;;;;;2.17;94.99;102126.63;115807;1192;72159;-77
2021/10/24 04:50:00;;;;;;;22.00;11.80;;;;;;;2.17;95.29;102129.38;115857;1192;72752;-77
2021/10/24 04:52:26;;;;;;;25.50;11.70;;;;;;;2.18;95.69;102129.89;115902;1191;63078;-77
2021/10/24 04:54:54;;;;;;;26.50;12.40;;;;;;;2.19;95.62;102131.56;115885;1191;59095;-77
2021/10/24 04:57:21;;;;;;;20.60;10.90;;;;;;;2.19;95.89;102127.52;115784;1192;75607;-77
2021/10/24 04:59:48;;;;;;;23.90;11.60;;;;;;;2.20;95.72;102127.31;115894;1191;71580;-77
2021/10/24 05:02:15;;;;;;;24.10;12.00;;;;;;;2.20;95.74;102124.86;115769;1192;72924;-77
2021/10/24 05:04:42;;;;;;;29.30;12.80;;;;;;;2.21;96.00;102120.43;115533;1192;61924;-77
2021/10/24 05:07:08;;;;;;;25.90;10.30;;;;;;;2.22;96.26;102119.54;115745;1192;62080;-77
2021/10/24 05:09:35;;;;;;;28.30;11.70;;;;;;;2.23;96.46;102122.27;115883;1191;59213;-77
2021/10/24 05:12:01;;;;;;;19.00;11.10;;;;;;;2.24;96.43;102122.89;115889;1192;71187;-77
2021/10/24 05:14:28;;;;;;;23.00;11.20;;;;;;;2.26;96.41;102120.00;115874;1191;73652;-77
2021/10/24 05:16:55;;;;;;;33.40;12.50;;;;;;;2.28;96.81;102116.95;115801;1192;58900;-77
2021/10/24 05:19:21;;;;;;;28.60;11.40;;;;;;;2.30;96.73;102115.92;115820;1192;60390;-77
2021/10/24 05:21:48;;;;;;;25.00;11.70;;;;;;;2.32;96.44;102115.11;115680;1192;59382;-77
2021/10/24 05:24:15;;;;;;;22.20;12.00;;;;;;;2.33;96.48;102111.05;115773;1191;69961;-78
2021/10/24 05:26:42;;;;;;;26.80;12.40;;;;;;;2.34;96.50;102110.13;115863;1192;73830;-78
2021/10/24 05:29:08;;;;;;;32.50;13.10;;;;;;;2.35;96.35;102113.01;115849;1192;63158;-78
2021/10/24 05:31:35;;;;;;;23.70;12.00;;;;;;;2.36;96.14;102109.46;115891;1192;59941;-78
2021/10/24 05:34:01;;;;;;;28.90;12.10;;;;;;;2.37;96.49;102107.17;115911;1191;58793;-78
2021/10/24 05:36:28;;;;;;;20.50;11.70;;;;;;;2.37;96.38;102108.36;115915;1192;71171;-77
2021/10/24 05:38:55;;;;;;;24.30;11.90;;;;;;;2.39;95.99;102107.22;115911;1191;58820;-77
2021/10/24 05:41:21;;;;;;;25.60;12.30;;;;;;;2.40;96.07;102108.20;115657;1192;62649;-77
2021/10/24 05:43:48;;;;;;;25.80;12.70;;;;;;;2.40;95.89;102108.90;115803;1192;59384;-77
2021/10/24 05:46:15;;;;;;;27.30;12.40;;;;;;;2.40;95.79;102109.09;115912;1192;74634;-77
2021/10/24 05:48:42;;;;;;;18.50;10.90;;;;;;;2.40;95.65;102109.28;115890;1192;70991;-78
2021/10/24 05:51:09;;;;;;;24.70;12.50;;;;;;;2.39;95.23;102104.74;115901;1192;58963;-77
2021/10/24 05:53:36;;;;;;;26.80;12.40;;;;;;;2.38;95.10;102105.03;115887;1192;62946;-77
2021/10/24 05:56:04;;;;;;;25.10;11.30;;;;;;;2.35;95.05;102108.32;115817;1191;61001;-77
2021/10/24 05:58:30;;;;;;;24.90;12.40;;;;;;;2.30;95.00;102101.30;115589;1192;75677;-78
2021/10/24 06:00:57;;;;;;;17.20;9.40;;;;;;;2.25;94.88;102101.37;115881;1192;72233;-78
2021/10/24 06:03:24;;;;;;;29.60;11.00;;;;;;;2.21;95.29;102102.29;115864;1192;73585;-78
2021/10/24 06:05:51;;;;;;;23.80;12.10;;;;;;;2.18;95.42;102099.84;115879;1192;61897;-78
2021/10/24 06:08:21;;;;;;;25.20;13.20;;;;;;;2.16;95.64;102099.26;115899;1192;59245;-78
2021/10/24 06:10:51;;;;;;;23.90;11.60;;;;;;;2.16;95.33;102098.05;115898;1184;74759;-78
2021/10/24 06:13:18;;;;;;;29.30;12.50;;;;;;;2.15;95.56;102102.80;115901;1192;70972;-78
2021/10/24 06:15:45;;;;;;;25.90;12.00;;;;;;;2.15;95.27;102099.18;115479;1192;72594;-78
2021/10/24 06:18:12;;;;;;;22.90;12.20;;;;;;;2.15;95.65;102098.08;115749;1192;64363;-78
2021/10/24 06:20:39;;;;;;;20.60;11.00;;;;;;;2.16;95.37;102102.78;115666;1192;61879;-77
2021/10/24 06:23:06;;;;;;;19.50;10.40;;;;;;;2.17;95.72;102106.70;115644;1192;74577;-77
2021/10/24 06:25:33;;;;;;;23.00;11.20;;;;;;;2.19;95.81;102106.08;115882;1192;70904;-77
2021/10/24 06:28:00;;;;;;;21.00;11.60;;;;;;;2.20;95.64;102104.77;115887;1192;72264;-77
2021/10/24 06:30:26;;;;;;;30.10;11.80;;;;;;;2.23;95.64;102106.02;115759;1192;59040;-78
2021/10/24 06:32:53;;;;;;;19.70;10.90;;;;;;;2.27;95.78;102108.96;115905;1192;59632;-77
2021/10/24 06:35:20;;;;;;;25.50;11.30;;;;;;;2.31;95.87;102110.29;115712;1193;75601;-77
2021/10/24 06:37:47;;;;;;;20.00;10.40;;;;;;;2.36;95.97;102112.27;115854;1192;70959;-78
2021/10/24 06:40:16;;;;;;;20.70;12.10;;;;;;;2.42;95.92;102108.96;115891;1192;71262;-78
2021/10/24 06:42:44;;;;;;;30.10;12.10;;;;;;;2.50;96.01;102108.50;115874;1192;62917;-78
2021/10/24 06:45:11;;;;;;;25.40;11.70;;;;;;;2.57;95.63;102111.64;115922;1192;60389;-78
2021/10/24 06:47:38;;;;;;;21.90;10.80;;;;;;;2.62;95.74;102110.10;115820;1192;75652;-78
2021/10/24 06:50:07;;;;;;;25.90;12.60;;;;;;;2.69;95.35;102110.77;115864;1192;72018;-78
2021/10/24 06:52:33;;;;;;;23.10;11.80;;;;;;;2.74;95.03;102110.45;115686;1192;72716;-77
2021/10/24 06:55:00;;;;;;;19.10;10.20;;;;;;;2.80;94.81;102105.41;115822;1192;61618;-77
2021/10/24 06:57:27;;;;;;;25.90;11.60;;;;;;;2.87;94.98;102104.29;115877;1192;59900;-79
2021/10/24 06:59:54;;;;;;;22.40;10.60;;;;;;;2.93;94.68;102103.44;115918;1192;74536;-78
2021/10/24 07:02:20;;;;;;;20.80;10.50;;;;;;;3.00;94.26;102108.75;115903;1192;72004;-78
2021/10/24 07:04:47;;;;;;;20.10;10.60;;;;;;;3.05;94.13;102102.19;115936;1192;71558;-78
2021/10/24 07:07:14;;;;;;;29.20;12.60;;;;;;;3.09;93.62;102105.44;115895;1192;59268;-78
2021/10/24 07:09:40;;;;;;;28.10;12.20;;;;;;;3.14;94.02;102105.31;115893;1192;60232;-78
2021/10/24 07:12:10;;;;;;;18.40;9.90;;;;;;;3.23;93.87;102102.15;115501;1192;74571;-78
2021/10/24 07:14:38;;;;;;;21.70;9.60;;;;;;;3.28;93.15;102104.98;115928;1192;70935;-78
2021/10/24 07:17:05;;;;;;;22.10;12.50;;;;;;;3.33;92.90;102100.86;115914;1192;72283;-78
2021/10/24 07:19:31;;;;;;;22.70;11.20;;;;;;;3.41;93.24;102099.30;115811;1184;63518;-78
2021/10/24 07:21:58;;;;;;;22.50;11.30;;;;;;;3.48;92.83;102097.34;115914;1192;58848;-78
2021/10/24 07:24:24;;;;;;;21.70;10.10;;;;;;;3.54;92.94;102092.77;115920;1192;75647;-77
2021/10/24 07:26:51;;;;;;;17.90;9.70;;;;;;;3.61;92.62;102095.48;115963;1192;58863;-78
2021/10/24 07:29:17;;;;;;;19.80;10.60;;;;;;;3.65;91.99;102100.62;115710;1192;73670;-77
2021/10/24 07:31:44;;;;;;;18.10;8.50;;;;;;;3.70;92.12;102103.30;115886;1192;63041;-77
2021/10/24 07:34:10;;;;;;;18.30;9.30;;;;;;;3.76;92.05;102101.17;115827;1192;60266;-77
2021/10/24 07:36:37;;;;;;;17.20;9.20;;;;;;;3.84;92.19;102097.68;115809;1192;58961;-76
2021/10/24 07:39:04;;;;;;;23.60;11.30;;;;;;;3.95;92.15;102100.88;115918;1191;59065;-78
2021/10/24 07:41:30;;;;;;;18.50;10.20;;;;;;;4.06;91.63;102098.75;115921;1192;72375;-78
2021/10/24 07:43:57;;;;;;;14.60;7.60;;;;;;;4.16;91.43;102094.95;115794;1192;58909;-77
2021/10/24 07:46:24;;;;;;;17.90;8.80;;;;;;;4.27;91.13;102093.94;115724;1192;59744;-78
2021/10/24 07:48:52;;;;;;;22.10;10.00;;;;;;;4.37;91.10;102094.29;115589;1192;74692;-78
2021/10/24 07:51:19;;;;;;;24.70;11.40;;;;;;;4.48;90.79;102090.27;115943;1192;70734;-78
2021/10/24 07:53:45;;;;;;;17.10;7.90;;;;;;;4.59;90.61;102096.23;115797;1192;72744;-78
2021/10/24 07:56:12;;;;;;;19.60;7.80;;;;;;;4.67;90.16;102100.23;115953;1184;61954;-77
2021/10/24 07:58:40;;;;;;;18.60;8.10;;;;;;;4.75;90.08;102104.59;115824;1192;60317;-77
2021/10/24 08:01:07;;;;;;;20.90;10.00;;;;;;;4.84;89.93;102098.58;115962;1192;76063;-77
2021/10/24 08:03:34;;;;;;;24.50;11.70;;;;;;;4.94;90.01;102097.22;115953;1191;69632;-77
2021/10/24 08:06:01;;;;;;;19.60;10.00;;;;;;;5.05;90.06;102096.97;115653;1192;73584;-78
2021/10/24 08:08:28;;;;;;;19.70;10.40;;;;;;;5.18;89.65;102101.02;115835;1192;62639;-77
2021/10/24 08:10:54;;;;;;;18.00;8.10;;;;;;;5.30;88.99;102101.23;115976;1192;60554;-77
2021/10/24 08:13:21;;;;;;;19.70;9.40;;;;;;;5.43;88.97;102099.41;115995;1192;74613;-77
2021/10/24 08:15:48;;;;;;;19.80;9.70;;;;;;;5.57;88.73;102093.38;115952;1192;59023;-77
2021/10/24 08:18:15;;;;;;;19.50;9.70;;;;;;;5.70;88.33;102089.48;115957;1192;72676;-78
2021/10/24 08:20:45;;;;;;;14.60;7.80;;;;;;;5.84;88.21;102091.33;115946;1192;60894;-78
2021/10/24 08:23:12;;;;;;;17.30;9.10;;;;;;;6.01;87.98;102089.96;115825;1192;61073;-78
2021/10/24 08:25:39;;;;;;;16.60;8.20;;;;;;;6.14;87.31;102087.04;115777;1192;74557;-78
2021/10/24 08:28:05;;;;;;;11.20;5.70;;;;;;;6.27;86.86;102084.03;115967;1192;71607;-78
2021/10/24 08:30:33;;;;;;;14.60;6.70;;;;;;;6.40;86.83;102083.56;115963;1192;72956;-78
2021/10/24 08:33:00;;;;;;;10.50;6.50;;;;;;;6.56;86.01;102082.42;115934;1191;61696;-78
2021/10/24 08:35:27;;;;;;;12.00;6.90;;;;;;;6.69;85.66;102080.94;115950;1192;60039;-78
2021/10/24 08:37:53;;;;;;;14.70;6.10;;;;;;;6.82;85.17;102078.84;115964;1192;75558;-78
2021/10/24 08:40:20;;;;;;;14.10;6.50;;;;;;;6.94;83.84;102075.70;115952;1192;70756;-78
2021/10/24 08:42:53;;;;;;;9.90;5.20;;;;;;;7.02;83.40;102075.59;115827;1192;73860;-78
2021/10/24 08:45:19;;;;;;;14.30;6.10;;;;;;;7.10;82.98;102070.63;115860;1192;61660;-77
2021/10/24 08:47:46;;;;;;;10.10;5.40;;;;;;;7.23;83.24;102073.67;115927;1192;59991;-77
2021/10/24 08:50:13;;;;;;;12.80;5.50;;;;;;;7.37;83.29;102068.83;115923;1192;73704;-77
2021/10/24 08:52:44;;;;;;;11.20;5.40;;;;;;;7.50;82.91;102069.77;115945;1192;70961;-77
2021/10/24 08:55:11;;;;;;;10.00;5.40;;;;;;;7.61;81.81;102070.70;115959;1192;72907;-79
2021/10/24 08:57:38;;;;;;;6.90;4.10;;;;;;;7.73;81.80;102069.31;115962;1192;61957;-78
2021/10/24 09:00:06;;;;;;;20.40;7.20;;;;;;;7.83;81.12;102062.77;115982;1192;60237;-78
2021/10/24 09:02:52;;;;;;;10.80;4.10;;;;;;;7.95;81.53;102059.10;115850;1184;74853;-78
2021/10/24 09:05:33;;;;;;;8.90;4.70;;;;;;;8.13;80.87;102053.44;115902;1192;71025;-78
2021/10/24 09:08:00;;;;;;;9.50;4.20;;;;;;;8.27;80.22;102048.64;115961;1192;73633;-73
2021/10/24 09:10:50;;;;;;;5.50;3.60;;;;;;;8.40;79.39;102046.17;115975;1192;61872;-73
2021/10/24 09:13:25;;;;;;;11.00;5.40;;;;;;;8.48;77.70;102041.64;115944;1192;61809;-73
2021/10/24 09:15:55;;;;;;;5.30;3.30;;;;;;;8.53;76.68;102041.54;115922;1192;74545;-73
2021/10/24 09:18:37;;;;;;;8.90;3.60;;;;;;;8.60;76.33;102034.09;115643;1192;71281;-73
2021/10/24 09:21:16;;;;;;;6.50;2.90;;;;;;;8.68;74.68;102030.63;115427;1192;72574;-73
2021/10/24 09:23:53;;;;;;;7.70;2.90;;;;;;;8.76;73.93;102024.63;115965;1192;62166;-73
2021/10/24 09:26:23;;;;;;;9.00;2.70;;;;;;;8.88;74.56;102020.95;115980;1192;60224;-73
2021/10/24 09:29:08;;;;;;;8.60;2.80;;;;;;;9.00;74.12;102023.06;115946;1192;75665;-73
2021/10/24 09:31:41;;;;;;;6.10;2.60;;;;;;;9.11;73.65;102012.86;115988;1191;70925;-72
2021/10/24 09:34:22;;;;;;;5.50;2.30;;;;;;;9.18;72.24;102011.15;115930;1192;73660;-73
2021/10/24 09:36:48;;;;;;;8.20;2.90;;;;;;;9.27;71.30;102010.05;115938;1192;60339;-73
2021/10/24 09:39:15;;;;;;;8.40;2.50;;;;;;;9.32;70.38;102014.65;115759;1192;59147;-73
2021/10/24 09:41:41;;;;;;;4.40;2.00;;;;;;;9.37;69.53;102010.73;115918;1192;74586;-73
2021/10/24 09:44:19;;;;;;;6.30;2.00;;;;;;;9.39;69.21;102011.43;115566;1192;71915;-73
2021/10/24 09:46:56;;;;;;;5.20;2.40;;;;;;;9.50;70.15;102005.19;115975;1192;72812;-73
2021/10/24 09:49:25;;;;;;;8.90;3.10;;;;;;;9.62;69.30;102008.20;115996;1191;61494;-73
2021/10/24 09:51:53;;;;;;;5.30;1.90;;;;;;;9.72;68.88;102012.04;115975;1192;61554;-73
2021/10/24 09:54:25;;;;;;;6.00;2.00;;;;;;;9.82;67.98;102010.28;115965;1192;76031;-73
2021/10/24 09:56:52;;;;;;;3.60;1.60;;;;;;;9.85;65.75;102006.65;115879;1192;70641;-73
2021/10/24 09:59:21;;;;;;;3.70;1.90;;;;;;;9.90;66.17;102004.59;115870;1192;72474;-73
2021/10/24 10:01:52;;;;;;;4.60;1.60;;;;;;;9.95;65.51;102001.14;115991;1191;64218;-73
2021/10/24 10:04:23;;;;;;;5.80;1.60;;;;;;;10.03;65.66;101997.95;115988;1192;61313;-73
2021/10/24 10:06:50;;;;;;;3.10;1.70;;;;;;;10.13;67.17;101995.45;115981;1192;74576;-73
2021/10/24 10:09:17;;;;;;;6.90;1.30;;;;;;;10.27;67.25;101990.11;115992;1192;72196;-73
2021/10/24 10:11:52;;;;;;;5.00;1.80;;;;;;;10.40;67.35;101988.91;115967;1192;58983;-73
2021/10/24 10:14:26;;;;;;;5.40;1.60;;;;;;;10.50;66.25;101992.08;115922;1192;62921;-73
2021/10/24 10:17:06;;;;;;;5.80;1.70;;;;;;;10.58;66.15;101990.61;115619;1192;60553;-73
2021/10/24 10:19:38;;;;;;;5.80;1.70;;;;;;;10.68;65.97;101987.57;115971;1191;74466;-73
2021/10/24 10:22:30;;;;;;;8.30;2.10;;;;;;;10.79;65.40;101982.80;115983;1192;72067;-73
2021/10/24 10:25:02;;;;;;;5.40;1.30;;;;;;;10.90;64.14;101980.74;115978;1192;72677;-73
2021/10/24 10:27:34;;;;;;;5.60;1.70;;;;;;;10.95;62.82;101976.89;115876;1192;61294;-73
2021/10/24 10:30:05;;;;;;;5.70;2.20;;;;;;;10.97;62.03;101976.71;115984;1192;60400;-73
2021/10/24 10:32:44;;;;;;;6.20;1.50;;;;;;;10.99;62.70;101973.83;115605;1191;74765;-73
2021/10/24 10:35:14;;;;;;;4.30;1.20;;;;;;;11.02;61.53;101978.32;115502;1192;71898;-72
2021/10/24 10:38:08;;;;;;;4.80;1.30;;;;;;;11.03;59.79;101974.88;115995;1192;72571;-74
2021/10/24 10:40:38;;;;;;;4.30;1.30;;;;;;;10.96;58.65;101972.38;115936;1191;62452;-74
2021/10/24 10:43:09;;;;;;;3.30;1.40;;;;;;;10.93;59.50;101971.59;116012;1184;60212;-74
2021/10/24 10:45:35;;;;;;;3.30;1.40;;;;;;;10.97;59.87;101966.45;115968;1192;75621;-73
2021/10/24 10:48:25;;;;;;;5.60;1.60;;;;;;;10.98;58.55;101960.51;115957;1184;59134;-73
2021/10/24 10:50:56;;;;;;;5.50;1.00;;;;;;;11.01;58.91;101961.08;115867;1191;73735;-73
2021/10/24 10:53:31;;;;;;;6.60;1.20;;;;;;;11.09;58.87;101956.12;115584;1192;61893;-73
2021/10/24 10:55:59;;;;;;;4.90;1.60;;;;;;;11.14;58.29;101957.98;115980;1191;60960;-73
2021/10/24 10:58:36;;;;;;;4.80;1.50;;;;;;;11.15;57.80;101950.37;115972;1192;75558;-73
2021/10/24 11:01:05;;;;;;;3.70;1.30;;;;;;;11.14;57.08;101953.34;115988;1192;72039;-73
2021/10/24 11:03:53;;;;;;;4.30;1.10;;;;;;;11.15;57.23;101943.48;115982;1192;73675;-73
2021/10/24 11:06:22;;;;;;;3.00;1.30;;;;;;;11.23;58.61;101941.30;115981;1192;61155;-73
2021/10/24 11:08:55;;;;;;;3.20;1.00;;;;;;;11.35;58.48;101945.81;115923;1192;59243;-73
2021/10/24 11:11:40;;;;;;;3.80;1.30;;;;;;;11.39;56.03;101936.21;115679;1191;74563;-73
2021/10/24 11:14:16;;;;;;;2.00;0.90;;;;;;;11.46;56.98;101935.76;115961;1192;73040;-73
2021/10/24 11:16:47;;;;;;;3.40;0.90;;;;;;;11.57;56.83;101925.93;115988;1192;73535;-73
2021/10/24 11:19:29;;;;;;;3.00;1.10;;;;;;;11.65;55.82;101921.60;115960;1192;62011;-73
2021/10/24 11:21:59;;;;;;;3.30;1.30;;;;;;;11.77;56.05;101920.07;115956;1192;61298;-73